sensor_id;sensor_type;location;lat;lon;timestamp;temperature;humidity
37846;DHT22;23686;49.828;8.702;2022-09-09T00:00:16;19.20;89.20
37846;DHT22;23686;49.828;8.702;2022-09-09T00:03:02;19.10;88.70
37846;DHT22;23686;49.828;8.702;2022-09-09T00:08:22;19.00;88.90
37846;DHT22;23686;49.828;8.702;2022-09-09T00:10:58;19.10;89.80
37846;DHT22;23686;49.828;8.702;2022-09-09T00:13:34;19.10;89.30
37846;DHT22;23686;49.828;8.702;2022-09-09T00:16:19;19.10;88.90
37846;DHT22;23686;49.828;8.702;2022-09-09T00:19:04;19.20;90.20
37846;DHT22;23686;49.828;8.702;2022-09-09T00:24:44;19.20;88.60
37846;DHT22;23686;49.828;8.702;2022-09-09T00:30:25;19.00;89.20
37846;DHT22;23686;49.828;8.702;2022-09-09T00:32:58;18.90;89.40
37846;DHT22;23686;49.828;8.702;2022-09-09T00:35:29;19.00;90.10
37846;DHT22;23686;49.828;8.702;2022-09-09T00:38:00;18.90;89.50
37846;DHT22;23686;49.828;8.702;2022-09-09T00:40:33;18.80;90.30
37846;DHT22;23686;49.828;8.702;2022-09-09T00:43:28;18.80;90.30
37846;DHT22;23686;49.828;8.702;2022-09-09T00:48:26;18.80;90.50
37846;DHT22;23686;49.828;8.702;2022-09-09T00:51:00;18.80;90.30
37846;DHT22;23686;49.828;8.702;2022-09-09T00:53:56;18.80;90.70
37846;DHT22;23686;49.828;8.702;2022-09-09T00:56:34;18.90;90.10
37846;DHT22;23686;49.828;8.702;2022-09-09T01:01:56;18.90;90.90
37846;DHT22;23686;49.828;8.702;2022-09-09T01:04:32;18.90;90.00
37846;DHT22;23686;49.828;8.702;2022-09-09T01:07:07;18.90;90.10
37846;DHT22;23686;49.828;8.702;2022-09-09T01:09:56;18.90;90.10
37846;DHT22;23686;49.828;8.702;2022-09-09T01:12:40;19.10;91.50
37846;DHT22;23686;49.828;8.702;2022-09-09T01:15:22;19.30;89.50
37846;DHT22;23686;49.828;8.702;2022-09-09T01:18:05;19.40;88.80
37846;DHT22;23686;49.828;8.702;2022-09-09T01:20:44;19.30;88.40
37846;DHT22;23686;49.828;8.702;2022-09-09T01:28:35;19.30;90.30
37846;DHT22;23686;49.828;8.702;2022-09-09T01:31:04;19.40;88.60
37846;DHT22;23686;49.828;8.702;2022-09-09T01:33:31;19.30;88.60
37846;DHT22;23686;49.828;8.702;2022-09-09T01:36:01;19.20;88.80
37846;DHT22;23686;49.828;8.702;2022-09-09T01:38:28;19.10;89.10
37846;DHT22;23686;49.828;8.702;2022-09-09T01:40:55;18.90;89.50
37846;DHT22;23686;49.828;8.702;2022-09-09T01:43:21;18.90;89.90
37846;DHT22;23686;49.828;8.702;2022-09-09T01:45:50;18.90;90.80
37846;DHT22;23686;49.828;8.702;2022-09-09T01:48:18;18.80;90.50
37846;DHT22;23686;49.828;8.702;2022-09-09T01:50:44;18.80;90.10
37846;DHT22;23686;49.828;8.702;2022-09-09T01:53:10;18.80;90.30
37846;DHT22;23686;49.828;8.702;2022-09-09T02:06:54;18.90;90.60
37846;DHT22;23686;49.828;8.702;2022-09-09T02:09:23;18.90;89.60
37846;DHT22;23686;49.828;8.702;2022-09-09T02:11:57;19.00;90.00
37846;DHT22;23686;49.828;8.702;2022-09-09T02:14:29;19.10;89.20
37846;DHT22;23686;49.828;8.702;2022-09-09T02:17:10;19.00;89.50
37846;DHT22;23686;49.828;8.702;2022-09-09T02:19:41;18.90;90.00
37846;DHT22;23686;49.828;8.702;2022-09-09T02:22:07;18.90;90.00
37846;DHT22;23686;49.828;8.702;2022-09-09T02:24:35;18.90;89.90
37846;DHT22;23686;49.828;8.702;2022-09-09T02:27:04;19.00;89.50
37846;DHT22;23686;49.828;8.702;2022-09-09T02:29:34;18.90;89.60
37846;DHT22;23686;49.828;8.702;2022-09-09T02:32:06;19.10;89.60
37846;DHT22;23686;49.828;8.702;2022-09-09T02:34:35;19.20;89.40
37846;DHT22;23686;49.828;8.702;2022-09-09T02:37:03;19.10;89.50
37846;DHT22;23686;49.828;8.702;2022-09-09T02:39:29;19.20;90.10
37846;DHT22;23686;49.828;8.702;2022-09-09T02:41:55;19.20;89.30
37846;DHT22;23686;49.828;8.702;2022-09-09T02:44:21;19.20;89.90
37846;DHT22;23686;49.828;8.702;2022-09-09T02:47:53;19.30;89.80
37846;DHT22;23686;49.828;8.702;2022-09-09T02:49:59;19.30;89.00
37846;DHT22;23686;49.828;8.702;2022-09-09T02:55:19;19.20;89.40
37846;DHT22;23686;49.828;8.702;2022-09-09T02:57:46;19.20;89.50
37846;DHT22;23686;49.828;8.702;2022-09-09T03:00:13;19.20;89.10
37846;DHT22;23686;49.828;8.702;2022-09-09T03:02:38;19.10;89.50
37846;DHT22;23686;49.828;8.702;2022-09-09T03:05:06;19.10;89.70
37846;DHT22;23686;49.828;8.702;2022-09-09T03:07:31;19.00;89.50
37846;DHT22;23686;49.828;8.702;2022-09-09T03:09:57;19.00;89.60
37846;DHT22;23686;49.828;8.702;2022-09-09T03:12:24;18.90;90.30
37846;DHT22;23686;49.828;8.702;2022-09-09T03:14:49;19.00;90.00
37846;DHT22;23686;49.828;8.702;2022-09-09T03:17:15;18.90;90.30
37846;DHT22;23686;49.828;8.702;2022-09-09T03:19:40;18.90;90.60
37846;DHT22;23686;49.828;8.702;2022-09-09T03:22:06;18.90;90.50
37846;DHT22;23686;49.828;8.702;2022-09-09T03:24:31;18.90;90.60
37846;DHT22;23686;49.828;8.702;2022-09-09T03:26:57;18.90;90.40
37846;DHT22;23686;49.828;8.702;2022-09-09T03:29:23;18.80;90.90
37846;DHT22;23686;49.828;8.702;2022-09-09T03:31:48;18.80;91.00
37846;DHT22;23686;49.828;8.702;2022-09-09T03:34:15;18.80;90.80
37846;DHT22;23686;49.828;8.702;2022-09-09T03:36:41;18.80;91.00
37846;DHT22;23686;49.828;8.702;2022-09-09T03:39:06;18.70;91.30
37846;DHT22;23686;49.828;8.702;2022-09-09T03:41:32;18.70;91.40
37846;DHT22;23686;49.828;8.702;2022-09-09T03:43:59;18.80;91.10
37846;DHT22;23686;49.828;8.702;2022-09-09T03:46:25;18.70;91.50
37846;DHT22;23686;49.828;8.702;2022-09-09T03:48:51;18.70;91.70
37846;DHT22;23686;49.828;8.702;2022-09-09T03:51:17;18.70;91.60
37846;DHT22;23686;49.828;8.702;2022-09-09T03:53:43;18.70;91.30
37846;DHT22;23686;49.828;8.702;2022-09-09T03:56:09;18.70;91.40
37846;DHT22;23686;49.828;8.702;2022-09-09T03:58:36;18.70;91.30
37846;DHT22;23686;49.828;8.702;2022-09-09T04:01:08;18.60;91.50
37846;DHT22;23686;49.828;8.702;2022-09-09T04:03:34;18.60;91.80
37846;DHT22;23686;49.828;8.702;2022-09-09T04:06:01;18.60;91.70
37846;DHT22;23686;49.828;8.702;2022-09-09T04:08:28;18.50;92.20
37846;DHT22;23686;49.828;8.702;2022-09-09T04:10:55;18.40;92.10
37846;DHT22;23686;49.828;8.702;2022-09-09T04:13:23;18.30;92.20
37846;DHT22;23686;49.828;8.702;2022-09-09T04:15:54;18.30;92.50
37846;DHT22;23686;49.828;8.702;2022-09-09T04:18:20;18.30;92.80
37846;DHT22;23686;49.828;8.702;2022-09-09T04:20:50;18.20;92.90
37846;DHT22;23686;49.828;8.702;2022-09-09T04:23:16;18.20;92.80
37846;DHT22;23686;49.828;8.702;2022-09-09T04:25:49;18.20;93.30
37846;DHT22;23686;49.828;8.702;2022-09-09T04:28:16;18.20;92.90
37846;DHT22;23686;49.828;8.702;2022-09-09T04:30:43;18.20;93.10
37846;DHT22;23686;49.828;8.702;2022-09-09T04:33:09;18.20;93.50
37846;DHT22;23686;49.828;8.702;2022-09-09T04:35:35;18.10;93.40
37846;DHT22;23686;49.828;8.702;2022-09-09T04:38:02;18.10;93.30
37846;DHT22;23686;49.828;8.702;2022-09-09T04:40:33;18.10;93.20
37846;DHT22;23686;49.828;8.702;2022-09-09T04:43:00;18.00;93.60
37846;DHT22;23686;49.828;8.702;2022-09-09T04:45:26;18.00;93.30
37846;DHT22;23686;49.828;8.702;2022-09-09T04:47:52;18.00;93.20
37846;DHT22;23686;49.828;8.702;2022-09-09T04:50:18;18.00;93.40
37846;DHT22;23686;49.828;8.702;2022-09-09T04:52:44;17.90;93.70
37846;DHT22;23686;49.828;8.702;2022-09-09T04:55:09;18.00;93.60
37846;DHT22;23686;49.828;8.702;2022-09-09T04:57:35;17.90;93.80
37846;DHT22;23686;49.828;8.702;2022-09-09T05:00:01;18.00;93.90
37846;DHT22;23686;49.828;8.702;2022-09-09T05:02:27;18.00;93.90
37846;DHT22;23686;49.828;8.702;2022-09-09T05:04:53;18.00;93.90
37846;DHT22;23686;49.828;8.702;2022-09-09T05:07:19;18.00;93.70
37846;DHT22;23686;49.828;8.702;2022-09-09T05:09:44;18.00;93.50
37846;DHT22;23686;49.828;8.702;2022-09-09T05:12:10;18.00;93.50
37846;DHT22;23686;49.828;8.702;2022-09-09T05:14:36;18.10;93.20
37846;DHT22;23686;49.828;8.702;2022-09-09T05:17:03;18.10;93.50
37846;DHT22;23686;49.828;8.702;2022-09-09T05:19:28;18.20;93.30
37846;DHT22;23686;49.828;8.702;2022-09-09T05:21:56;18.20;93.00
37846;DHT22;23686;49.828;8.702;2022-09-09T05:24:22;18.30;92.10
37846;DHT22;23686;49.828;8.702;2022-09-09T05:26:48;18.30;92.60
37846;DHT22;23686;49.828;8.702;2022-09-09T05:29:14;18.30;92.60
37846;DHT22;23686;49.828;8.702;2022-09-09T05:31:39;18.50;91.90
37846;DHT22;23686;49.828;8.702;2022-09-09T05:34:06;18.60;91.50
37846;DHT22;23686;49.828;8.702;2022-09-09T05:36:31;18.60;91.50
37846;DHT22;23686;49.828;8.702;2022-09-09T05:38:57;18.70;91.20
37846;DHT22;23686;49.828;8.702;2022-09-09T05:41:23;18.70;91.00
37846;DHT22;23686;49.828;8.702;2022-09-09T05:43:49;18.80;91.40
37846;DHT22;23686;49.828;8.702;2022-09-09T05:46:17;18.80;90.60
37846;DHT22;23686;49.828;8.702;2022-09-09T05:48:44;18.80;91.10
37846;DHT22;23686;49.828;8.702;2022-09-09T05:51:15;18.80;90.60
37846;DHT22;23686;49.828;8.702;2022-09-09T05:53:42;18.80;90.70
37846;DHT22;23686;49.828;8.702;2022-09-09T05:56:13;18.90;90.20
37846;DHT22;23686;49.828;8.702;2022-09-09T05:58:43;18.90;90.30
37846;DHT22;23686;49.828;8.702;2022-09-09T06:01:30;19.00;90.40
37846;DHT22;23686;49.828;8.702;2022-09-09T06:03:56;18.90;90.90
37846;DHT22;23686;49.828;8.702;2022-09-09T06:06:24;19.00;90.20
37846;DHT22;23686;49.828;8.702;2022-09-09T06:08:53;19.00;90.60
37846;DHT22;23686;49.828;8.702;2022-09-09T06:11:21;19.00;90.70
37846;DHT22;23686;49.828;8.702;2022-09-09T06:13:47;18.90;90.90
37846;DHT22;23686;49.828;8.702;2022-09-09T06:16:17;19.10;90.40
37846;DHT22;23686;49.828;8.702;2022-09-09T06:18:43;19.10;90.10
37846;DHT22;23686;49.828;8.702;2022-09-09T06:21:15;19.20;90.00
37846;DHT22;23686;49.828;8.702;2022-09-09T06:23:41;19.30;89.50
37846;DHT22;23686;49.828;8.702;2022-09-09T06:26:27;19.30;89.80
37846;DHT22;23686;49.828;8.702;2022-09-09T06:28:54;19.30;90.20
37846;DHT22;23686;49.828;8.702;2022-09-09T06:31:23;19.40;89.50
37846;DHT22;23686;49.828;8.702;2022-09-09T06:33:50;19.40;89.70
37846;DHT22;23686;49.828;8.702;2022-09-09T06:36:19;19.40;89.60
37846;DHT22;23686;49.828;8.702;2022-09-09T06:38:45;19.50;89.20
37846;DHT22;23686;49.828;8.702;2022-09-09T06:41:13;19.60;89.70
37846;DHT22;23686;49.828;8.702;2022-09-09T06:43:39;19.60;89.40
37846;DHT22;23686;49.828;8.702;2022-09-09T06:48:39;19.70;89.20
37846;DHT22;23686;49.828;8.702;2022-09-09T06:51:10;19.80;88.60
37846;DHT22;23686;49.828;8.702;2022-09-09T06:53:40;19.80;88.50
37846;DHT22;23686;49.828;8.702;2022-09-09T06:56:29;19.80;88.50
37846;DHT22;23686;49.828;8.702;2022-09-09T06:58:56;19.90;87.90
37846;DHT22;23686;49.828;8.702;2022-09-09T07:01:27;19.90;88.60
37846;DHT22;23686;49.828;8.702;2022-09-09T07:03:54;20.00;87.60
37846;DHT22;23686;49.828;8.702;2022-09-09T07:06:22;20.00;87.60
37846;DHT22;23686;49.828;8.702;2022-09-09T07:08:49;20.00;87.70
37846;DHT22;23686;49.828;8.702;2022-09-09T07:11:15;20.00;87.60
37846;DHT22;23686;49.828;8.702;2022-09-09T07:13:41;20.00;87.60
37846;DHT22;23686;49.828;8.702;2022-09-09T07:16:09;20.00;87.70
37846;DHT22;23686;49.828;8.702;2022-09-09T07:18:35;19.90;88.60
37846;DHT22;23686;49.828;8.702;2022-09-09T07:21:02;19.90;88.80
37846;DHT22;23686;49.828;8.702;2022-09-09T07:23:29;19.90;88.50
37846;DHT22;23686;49.828;8.702;2022-09-09T07:25:55;19.80;88.60
37846;DHT22;23686;49.828;8.702;2022-09-09T07:28:21;19.90;88.60
37846;DHT22;23686;49.828;8.702;2022-09-09T07:30:58;19.80;89.10
37846;DHT22;23686;49.828;8.702;2022-09-09T07:33:25;19.90;88.80
37846;DHT22;23686;49.828;8.702;2022-09-09T07:35:51;19.90;88.60
37846;DHT22;23686;49.828;8.702;2022-09-09T07:38:18;19.90;88.60
37846;DHT22;23686;49.828;8.702;2022-09-09T07:40:44;19.90;88.10
37846;DHT22;23686;49.828;8.702;2022-09-09T07:43:10;20.00;88.40
37846;DHT22;23686;49.828;8.702;2022-09-09T07:45:36;20.00;88.20
37846;DHT22;23686;49.828;8.702;2022-09-09T07:48:02;19.90;88.80
37846;DHT22;23686;49.828;8.702;2022-09-09T07:50:28;19.90;88.60
37846;DHT22;23686;49.828;8.702;2022-09-09T07:52:53;20.00;88.30
37846;DHT22;23686;49.828;8.702;2022-09-09T07:55:20;19.90;88.80
37846;DHT22;23686;49.828;8.702;2022-09-09T07:57:46;20.00;88.00
37846;DHT22;23686;49.828;8.702;2022-09-09T08:00:12;20.10;88.40
37846;DHT22;23686;49.828;8.702;2022-09-09T08:02:40;20.10;88.20
37846;DHT22;23686;49.828;8.702;2022-09-09T08:05:05;20.20;88.40
37846;DHT22;23686;49.828;8.702;2022-09-09T08:07:31;20.20;88.40
37846;DHT22;23686;49.828;8.702;2022-09-09T08:09:56;20.30;88.00
37846;DHT22;23686;49.828;8.702;2022-09-09T08:12:22;20.30;88.50
37846;DHT22;23686;49.828;8.702;2022-09-09T08:14:48;20.30;88.50
37846;DHT22;23686;49.828;8.702;2022-09-09T08:17:14;20.40;87.50
37846;DHT22;23686;49.828;8.702;2022-09-09T08:19:39;20.40;87.70
37846;DHT22;23686;49.828;8.702;2022-09-09T08:22:05;20.40;87.20
37846;DHT22;23686;49.828;8.702;2022-09-09T08:24:31;20.50;87.20
37846;DHT22;23686;49.828;8.702;2022-09-09T08:26:56;20.50;87.10
37846;DHT22;23686;49.828;8.702;2022-09-09T08:29:23;20.50;87.70
37846;DHT22;23686;49.828;8.702;2022-09-09T08:31:50;20.60;86.90
37846;DHT22;23686;49.828;8.702;2022-09-09T08:34:17;20.70;86.40
37846;DHT22;23686;49.828;8.702;2022-09-09T08:36:46;20.80;86.50
37846;DHT22;23686;49.828;8.702;2022-09-09T08:39:16;20.80;85.90
37846;DHT22;23686;49.828;8.702;2022-09-09T08:45:00;20.80;86.00
37846;DHT22;23686;49.828;8.702;2022-09-09T08:50:30;20.70;85.90
37846;DHT22;23686;49.828;8.702;2022-09-09T08:53:11;20.70;85.80
37846;DHT22;23686;49.828;8.702;2022-09-09T08:55:54;20.70;85.50
37846;DHT22;23686;49.828;8.702;2022-09-09T08:58:26;20.80;85.20
37846;DHT22;23686;49.828;8.702;2022-09-09T09:04:00;21.00;84.40
37846;DHT22;23686;49.828;8.702;2022-09-09T09:06:33;21.10;83.80
37846;DHT22;23686;49.828;8.702;2022-09-09T09:09:17;21.30;83.30
37846;DHT22;23686;49.828;8.702;2022-09-09T09:11:53;21.50;83.50
37846;DHT22;23686;49.828;8.702;2022-09-09T09:14:26;21.40;83.10
37846;DHT22;23686;49.828;8.702;2022-09-09T09:17:02;21.50;83.30
37846;DHT22;23686;49.828;8.702;2022-09-09T09:19:30;21.60;83.10
37846;DHT22;23686;49.828;8.702;2022-09-09T09:22:05;21.50;83.10
37846;DHT22;23686;49.828;8.702;2022-09-09T09:24:45;21.60;82.80
37846;DHT22;23686;49.828;8.702;2022-09-09T09:27:16;21.60;82.70
37846;DHT22;23686;49.828;8.702;2022-09-09T09:29:44;21.60;82.60
37846;DHT22;23686;49.828;8.702;2022-09-09T09:32:14;21.60;82.80
37846;DHT22;23686;49.828;8.702;2022-09-09T09:34:41;21.70;83.00
37846;DHT22;23686;49.828;8.702;2022-09-09T09:37:16;21.70;83.10
37846;DHT22;23686;49.828;8.702;2022-09-09T09:39:44;21.60;83.10
37846;DHT22;23686;49.828;8.702;2022-09-09T09:42:12;21.60;83.00
37846;DHT22;23686;49.828;8.702;2022-09-09T09:44:40;21.50;83.00
37846;DHT22;23686;49.828;8.702;2022-09-09T09:47:12;21.50;83.20
37846;DHT22;23686;49.828;8.702;2022-09-09T09:49:38;21.40;83.20
37846;DHT22;23686;49.828;8.702;2022-09-09T09:52:06;21.40;83.30
37846;DHT22;23686;49.828;8.702;2022-09-09T09:54:41;21.50;83.80
37846;DHT22;23686;49.828;8.702;2022-09-09T09:57:17;21.50;83.30
37846;DHT22;23686;49.828;8.702;2022-09-09T09:59:43;21.50;83.30
37846;DHT22;23686;49.828;8.702;2022-09-09T10:02:24;21.60;83.30
37846;DHT22;23686;49.828;8.702;2022-09-09T10:05:03;21.60;83.20
37846;DHT22;23686;49.828;8.702;2022-09-09T10:07:29;21.80;82.70
37846;DHT22;23686;49.828;8.702;2022-09-09T10:09:56;21.70;82.20
37846;DHT22;23686;49.828;8.702;2022-09-09T10:17:55;21.90;81.10
37846;DHT22;23686;49.828;8.702;2022-09-09T10:22:51;22.10;81.10
37846;DHT22;23686;49.828;8.702;2022-09-09T10:25:28;22.10;81.10
37846;DHT22;23686;49.828;8.702;2022-09-09T10:36:34;21.90;81.80
37846;DHT22;23686;49.828;8.702;2022-09-09T10:39:34;21.90;82.10
37846;DHT22;23686;49.828;8.702;2022-09-09T10:42:08;21.90;82.10
37846;DHT22;23686;49.828;8.702;2022-09-09T10:44:53;21.80;81.80
37846;DHT22;23686;49.828;8.702;2022-09-09T10:53:31;21.60;81.40
37846;DHT22;23686;49.828;8.702;2022-09-09T10:56:09;21.60;81.20
37846;DHT22;23686;49.828;8.702;2022-09-09T10:58:46;21.60;81.30
37846;DHT22;23686;49.828;8.702;2022-09-09T11:01:22;21.70;81.80
37846;DHT22;23686;49.828;8.702;2022-09-09T11:04:04;21.70;81.50
37846;DHT22;23686;49.828;8.702;2022-09-09T11:06:40;21.70;81.70
37846;DHT22;23686;49.828;8.702;2022-09-09T11:09:15;21.70;81.80
37846;DHT22;23686;49.828;8.702;2022-09-09T11:11:49;21.80;82.40
37846;DHT22;23686;49.828;8.702;2022-09-09T11:14:31;22.00;83.50
37846;DHT22;23686;49.828;8.702;2022-09-09T11:17:02;22.00;83.50
37846;DHT22;23686;49.828;8.702;2022-09-09T11:22:37;21.90;82.90
37846;DHT22;23686;49.828;8.702;2022-09-09T11:25:17;21.90;81.40
37846;DHT22;23686;49.828;8.702;2022-09-09T11:28:10;22.10;81.50
37846;DHT22;23686;49.828;8.702;2022-09-09T11:36:26;22.30;79.40
37846;DHT22;23686;49.828;8.702;2022-09-09T11:42:14;22.30;78.60
37846;DHT22;23686;49.828;8.702;2022-09-09T11:44:41;22.40;78.30
37846;DHT22;23686;49.828;8.702;2022-09-09T11:47:27;22.50;78.40
37846;DHT22;23686;49.828;8.702;2022-09-09T11:52:46;22.60;78.00
37846;DHT22;23686;49.828;8.702;2022-09-09T11:55:26;22.70;77.90
37846;DHT22;23686;49.828;8.702;2022-09-09T11:58:03;22.80;77.60
37846;DHT22;23686;49.828;8.702;2022-09-09T12:00:43;22.70;77.70
37846;DHT22;23686;49.828;8.702;2022-09-09T12:03:41;22.60;77.90
37846;DHT22;23686;49.828;8.702;2022-09-09T12:06:31;22.40;78.10
37846;DHT22;23686;49.828;8.702;2022-09-09T12:09:15;22.40;78.30
37846;DHT22;23686;49.828;8.702;2022-09-09T12:11:43;22.30;79.10
37846;DHT22;23686;49.828;8.702;2022-09-09T12:14:23;22.30;79.00
37846;DHT22;23686;49.828;8.702;2022-09-09T12:16:54;22.20;78.80
37846;DHT22;23686;49.828;8.702;2022-09-09T12:19:21;22.10;79.00
37846;DHT22;23686;49.828;8.702;2022-09-09T12:22:23;22.00;78.80
37846;DHT22;23686;49.828;8.702;2022-09-09T12:31:05;21.90;79.10
37846;DHT22;23686;49.828;8.702;2022-09-09T12:33:39;21.90;78.30
37846;DHT22;23686;49.828;8.702;2022-09-09T12:36:12;21.90;78.00
37846;DHT22;23686;49.828;8.702;2022-09-09T12:38:40;21.90;78.00
37846;DHT22;23686;49.828;8.702;2022-09-09T12:41:15;22.00;78.20
37846;DHT22;23686;49.828;8.702;2022-09-09T12:43:44;21.90;78.10
37846;DHT22;23686;49.828;8.702;2022-09-09T12:46:17;21.90;78.00
37846;DHT22;23686;49.828;8.702;2022-09-09T12:48:47;21.90;77.70
37846;DHT22;23686;49.828;8.702;2022-09-09T12:51:24;21.90;77.70
37846;DHT22;23686;49.828;8.702;2022-09-09T12:53:58;21.90;77.80
37846;DHT22;23686;49.828;8.702;2022-09-09T12:56:30;21.90;78.80
37846;DHT22;23686;49.828;8.702;2022-09-09T12:58:57;21.90;78.00
37846;DHT22;23686;49.828;8.702;2022-09-09T13:01:31;21.90;78.10
37846;DHT22;23686;49.828;8.702;2022-09-09T13:04:00;22.00;78.50
37846;DHT22;23686;49.828;8.702;2022-09-09T13:06:28;22.00;78.40
37846;DHT22;23686;49.828;8.702;2022-09-09T13:08:55;22.00;78.30
37846;DHT22;23686;49.828;8.702;2022-09-09T13:11:25;22.00;77.80
37846;DHT22;23686;49.828;8.702;2022-09-09T13:13:55;22.00;77.50
37846;DHT22;23686;49.828;8.702;2022-09-09T13:16:29;22.00;77.30
37846;DHT22;23686;49.828;8.702;2022-09-09T13:18:59;22.00;77.10
37846;DHT22;23686;49.828;8.702;2022-09-09T13:21:44;21.90;76.80
37846;DHT22;23686;49.828;8.702;2022-09-09T13:24:31;21.80;76.60
37846;DHT22;23686;49.828;8.702;2022-09-09T13:27:03;21.80;76.90
37846;DHT22;23686;49.828;8.702;2022-09-09T13:29:30;21.90;76.80
37846;DHT22;23686;49.828;8.702;2022-09-09T13:32:16;21.80;77.10
37846;DHT22;23686;49.828;8.702;2022-09-09T13:34:51;21.80;77.10
37846;DHT22;23686;49.828;8.702;2022-09-09T13:37:30;21.80;77.60
37846;DHT22;23686;49.828;8.702;2022-09-09T13:39:58;21.60;79.30
37846;DHT22;23686;49.828;8.702;2022-09-09T13:42:29;21.60;79.30
37846;DHT22;23686;49.828;8.702;2022-09-09T13:44:58;21.50;80.00
37846;DHT22;23686;49.828;8.702;2022-09-09T13:47:35;21.50;80.20
37846;DHT22;23686;49.828;8.702;2022-09-09T13:50:30;21.40;81.10
37846;DHT22;23686;49.828;8.702;2022-09-09T13:52:58;21.40;81.20
37846;DHT22;23686;49.828;8.702;2022-09-09T13:55:28;21.30;81.50
37846;DHT22;23686;49.828;8.702;2022-09-09T13:57:58;21.30;82.30
37846;DHT22;23686;49.828;8.702;2022-09-09T14:00:27;21.40;81.70
37846;DHT22;23686;49.828;8.702;2022-09-09T14:02:54;21.40;81.70
37846;DHT22;23686;49.828;8.702;2022-09-09T14:05:20;21.50;82.70
37846;DHT22;23686;49.828;8.702;2022-09-09T14:07:47;21.60;82.00
37846;DHT22;23686;49.828;8.702;2022-09-09T14:10:13;21.70;82.30
37846;DHT22;23686;49.828;8.702;2022-09-09T14:12:39;21.60;82.90
37846;DHT22;23686;49.828;8.702;2022-09-09T14:15:06;21.70;82.90
37846;DHT22;23686;49.828;8.702;2022-09-09T14:17:32;21.70;82.20
37846;DHT22;23686;49.828;8.702;2022-09-09T14:19:58;21.70;82.40
37846;DHT22;23686;49.828;8.702;2022-09-09T14:22:24;21.80;81.60
37846;DHT22;23686;49.828;8.702;2022-09-09T14:24:51;21.80;81.00
37846;DHT22;23686;49.828;8.702;2022-09-09T14:27:16;21.80;80.30
37846;DHT22;23686;49.828;8.702;2022-09-09T14:29:43;21.90;80.10
37846;DHT22;23686;49.828;8.702;2022-09-09T14:32:10;21.90;79.20
37846;DHT22;23686;49.828;8.702;2022-09-09T14:34:35;21.90;79.10
37846;DHT22;23686;49.828;8.702;2022-09-09T14:37:01;21.80;79.50
37846;DHT22;23686;49.828;8.702;2022-09-09T14:39:27;21.80;79.50
37846;DHT22;23686;49.828;8.702;2022-09-09T14:41:52;21.80;79.30
37846;DHT22;23686;49.828;8.702;2022-09-09T14:44:18;21.80;79.60
37846;DHT22;23686;49.828;8.702;2022-09-09T14:46:44;21.80;79.20
37846;DHT22;23686;49.828;8.702;2022-09-09T14:49:09;21.70;80.20
37846;DHT22;23686;49.828;8.702;2022-09-09T14:51:38;21.80;80.00
37846;DHT22;23686;49.828;8.702;2022-09-09T14:54:03;21.70;79.40
37846;DHT22;23686;49.828;8.702;2022-09-09T14:56:31;21.70;79.20
37846;DHT22;23686;49.828;8.702;2022-09-09T14:59:00;21.70;79.70
37846;DHT22;23686;49.828;8.702;2022-09-09T15:01:29;21.60;80.80
37846;DHT22;23686;49.828;8.702;2022-09-09T15:03:57;21.60;80.10
37846;DHT22;23686;49.828;8.702;2022-09-09T15:06:24;21.60;80.40
37846;DHT22;23686;49.828;8.702;2022-09-09T15:08:51;21.60;81.30
37846;DHT22;23686;49.828;8.702;2022-09-09T15:11:18;21.50;81.70
37846;DHT22;23686;49.828;8.702;2022-09-09T15:13:44;21.50;81.40
37846;DHT22;23686;49.828;8.702;2022-09-09T15:16:13;21.50;82.10
37846;DHT22;23686;49.828;8.702;2022-09-09T15:18:38;21.50;81.10
37846;DHT22;23686;49.828;8.702;2022-09-09T15:21:13;21.50;82.00
37846;DHT22;23686;49.828;8.702;2022-09-09T15:23:39;21.50;82.20
37846;DHT22;23686;49.828;8.702;2022-09-09T15:26:05;21.40;82.20
37846;DHT22;23686;49.828;8.702;2022-09-09T15:28:35;21.40;81.30
37846;DHT22;23686;49.828;8.702;2022-09-09T15:31:06;21.40;82.60
37846;DHT22;23686;49.828;8.702;2022-09-09T15:33:33;21.50;82.50
37846;DHT22;23686;49.828;8.702;2022-09-09T15:35:59;21.40;81.60
37846;DHT22;23686;49.828;8.702;2022-09-09T15:38:24;21.50;81.40
37846;DHT22;23686;49.828;8.702;2022-09-09T15:40:54;21.40;82.00
37846;DHT22;23686;49.828;8.702;2022-09-09T15:43:24;21.40;82.70
37846;DHT22;23686;49.828;8.702;2022-09-09T15:45:56;21.30;82.50
37846;DHT22;23686;49.828;8.702;2022-09-09T15:48:30;21.30;83.40
37846;DHT22;23686;49.828;8.702;2022-09-09T15:51:06;21.20;82.80
37846;DHT22;23686;49.828;8.702;2022-09-09T15:53:32;21.20;82.60
37846;DHT22;23686;49.828;8.702;2022-09-09T15:55:58;21.20;82.90
37846;DHT22;23686;49.828;8.702;2022-09-09T15:58:23;21.20;83.10
37846;DHT22;23686;49.828;8.702;2022-09-09T16:00:50;21.20;83.00
37846;DHT22;23686;49.828;8.702;2022-09-09T16:03:16;21.20;83.60
37846;DHT22;23686;49.828;8.702;2022-09-09T16:05:42;21.20;83.40
37846;DHT22;23686;49.828;8.702;2022-09-09T16:08:07;21.20;82.30
37846;DHT22;23686;49.828;8.702;2022-09-09T16:10:33;21.20;82.70
37846;DHT22;23686;49.828;8.702;2022-09-09T16:12:58;21.10;82.10
37846;DHT22;23686;49.828;8.702;2022-09-09T16:15:24;21.10;82.20
37846;DHT22;23686;49.828;8.702;2022-09-09T16:17:53;21.20;83.10
37846;DHT22;23686;49.828;8.702;2022-09-09T16:20:18;21.20;83.00
37846;DHT22;23686;49.828;8.702;2022-09-09T16:22:44;21.20;82.90
37846;DHT22;23686;49.828;8.702;2022-09-09T16:25:09;21.30;83.50
37846;DHT22;23686;49.828;8.702;2022-09-09T16:27:35;21.40;82.90
37846;DHT22;23686;49.828;8.702;2022-09-09T16:30:01;21.50;81.60
37846;DHT22;23686;49.828;8.702;2022-09-09T16:32:28;21.50;81.00
37846;DHT22;23686;49.828;8.702;2022-09-09T16:34:58;21.50;80.90
37846;DHT22;23686;49.828;8.702;2022-09-09T16:37:24;21.40;80.80
37846;DHT22;23686;49.828;8.702;2022-09-09T16:39:49;21.30;81.00
37846;DHT22;23686;49.828;8.702;2022-09-09T16:42:16;21.30;81.00
37846;DHT22;23686;49.828;8.702;2022-09-09T16:44:42;21.30;81.00
37846;DHT22;23686;49.828;8.702;2022-09-09T16:47:07;21.20;81.30
37846;DHT22;23686;49.828;8.702;2022-09-09T16:49:52;21.10;81.40
37846;DHT22;23686;49.828;8.702;2022-09-09T16:52:17;21.00;81.50
37846;DHT22;23686;49.828;8.702;2022-09-09T16:54:43;21.00;81.70
37846;DHT22;23686;49.828;8.702;2022-09-09T16:57:08;20.80;81.70
37846;DHT22;23686;49.828;8.702;2022-09-09T16:59:34;20.70;82.30
37846;DHT22;23686;49.828;8.702;2022-09-09T17:01:59;20.50;82.70
37846;DHT22;23686;49.828;8.702;2022-09-09T17:04:27;20.40;82.50
37846;DHT22;23686;49.828;8.702;2022-09-09T17:06:54;20.20;82.30
37846;DHT22;23686;49.828;8.702;2022-09-09T17:09:20;20.20;83.20
37846;DHT22;23686;49.828;8.702;2022-09-09T17:12:02;20.10;83.90
37846;DHT22;23686;49.828;8.702;2022-09-09T17:14:28;20.00;83.90
37846;DHT22;23686;49.828;8.702;2022-09-09T17:16:56;19.90;84.30